sensor_id;sensor_type;location;lat;lon;timestamp;temperature;humidity
578;DHT22;275;48.492;9.214;2022-11-20T00:01:25;8.10;43.40
578;DHT22;275;48.492;9.214;2022-11-20T00:03:53;8.40;42.50
578;DHT22;275;48.492;9.214;2022-11-20T00:06:22;8.30;42.60
578;DHT22;275;48.492;9.214;2022-11-20T00:08:50;8.10;43.00
578;DHT22;275;48.492;9.214;2022-11-20T00:11:19;8.40;42.50
578;DHT22;275;48.492;9.214;2022-11-20T00:13:47;8.40;42.40
578;DHT22;275;48.492;9.214;2022-11-20T00:16:16;8.40;42.30
578;DHT22;275;48.492;9.214;2022-11-20T00:18:43;8.10;43.40
578;DHT22;275;48.492;9.214;2022-11-20T00:21:12;8.40;42.90
578;DHT22;275;48.492;9.214;2022-11-20T00:23:41;9.10;41.00
578;DHT22;275;48.492;9.214;2022-11-20T00:26:10;9.20;40.40
578;DHT22;275;48.492;9.214;2022-11-20T00:28:38;9.60;39.40
578;DHT22;275;48.492;9.214;2022-11-20T00:31:06;9.80;38.80
578;DHT22;275;48.492;9.214;2022-11-20T00:33:34;8.80;41.10
578;DHT22;275;48.492;9.214;2022-11-20T00:36:01;8.90;41.00
578;DHT22;275;48.492;9.214;2022-11-20T00:38:29;8.90;40.80
578;DHT22;275;48.492;9.214;2022-11-20T00:40:58;9.20;40.50
578;DHT22;275;48.492;9.214;2022-11-20T00:43:26;9.30;40.20
578;DHT22;275;48.492;9.214;2022-11-20T00:45:57;8.60;41.90
578;DHT22;275;48.492;9.214;2022-11-20T00:48:24;9.00;41.20
578;DHT22;275;48.492;9.214;2022-11-20T00:50:51;9.40;40.10
578;DHT22;275;48.492;9.214;2022-11-20T00:53:17;9.00;41.00
578;DHT22;275;48.492;9.214;2022-11-20T00:55:53;9.20;40.40
578;DHT22;275;48.492;9.214;2022-11-20T00:58:21;9.30;40.60
578;DHT22;275;48.492;9.214;2022-11-20T01:00:48;9.00;41.10
578;DHT22;275;48.492;9.214;2022-11-20T01:03:16;8.60;42.60
578;DHT22;275;48.492;9.214;2022-11-20T01:05:43;8.40;43.10
578;DHT22;275;48.492;9.214;2022-11-20T01:08:10;8.40;43.10
578;DHT22;275;48.492;9.214;2022-11-20T01:10:36;8.20;44.00
578;DHT22;275;48.492;9.214;2022-11-20T01:13:03;8.50;42.80
578;DHT22;275;48.492;9.214;2022-11-20T01:16:03;8.40;43.00
578;DHT22;275;48.492;9.214;2022-11-20T01:18:30;8.60;42.70
578;DHT22;275;48.492;9.214;2022-11-20T01:21:00;8.70;42.60
578;DHT22;275;48.492;9.214;2022-11-20T01:23:30;8.60;42.50
578;DHT22;275;48.492;9.214;2022-11-20T01:25:58;8.60;42.70
578;DHT22;275;48.492;9.214;2022-11-20T01:28:25;8.70;41.80
578;DHT22;275;48.492;9.214;2022-11-20T01:30:52;8.60;42.50
578;DHT22;275;48.492;9.214;2022-11-20T01:33:20;8.80;42.00
578;DHT22;275;48.492;9.214;2022-11-20T01:35:47;9.00;41.00
578;DHT22;275;48.492;9.214;2022-11-20T01:38:15;8.70;42.00
578;DHT22;275;48.492;9.214;2022-11-20T01:40:41;8.90;41.30
578;DHT22;275;48.492;9.214;2022-11-20T01:43:13;9.30;40.30
578;DHT22;275;48.492;9.214;2022-11-20T01:46:13;9.50;39.70
578;DHT22;275;48.492;9.214;2022-11-20T01:48:47;9.30;40.00
578;DHT22;275;48.492;9.214;2022-11-20T01:51:20;9.30;39.90
578;DHT22;275;48.492;9.214;2022-11-20T01:53:48;8.90;41.00
578;DHT22;275;48.492;9.214;2022-11-20T01:56:16;8.90;41.10
578;DHT22;275;48.492;9.214;2022-11-20T01:58:48;9.10;40.50
578;DHT22;275;48.492;9.214;2022-11-20T02:01:16;9.20;40.10
578;DHT22;275;48.492;9.214;2022-11-20T02:03:44;9.00;40.50
578;DHT22;275;48.492;9.214;2022-11-20T02:06:16;8.90;41.00
578;DHT22;275;48.492;9.214;2022-11-20T02:08:43;9.20;40.30
578;DHT22;275;48.492;9.214;2022-11-20T02:11:10;9.40;39.30
578;DHT22;275;48.492;9.214;2022-11-20T02:13:39;9.20;39.80
578;DHT22;275;48.492;9.214;2022-11-20T02:16:17;9.10;39.20
578;DHT22;275;48.492;9.214;2022-11-20T02:18:48;8.60;40.10
578;DHT22;275;48.492;9.214;2022-11-20T02:21:28;8.40;40.90
578;DHT22;275;48.492;9.214;2022-11-20T02:24:07;8.50;40.20
578;DHT22;275;48.492;9.214;2022-11-20T02:26:48;8.30;41.00
578;DHT22;275;48.492;9.214;2022-11-20T02:29:22;8.60;40.70
578;DHT22;275;48.492;9.214;2022-11-20T02:31:50;9.20;39.20
578;DHT22;275;48.492;9.214;2022-11-20T02:34:18;9.70;37.40
578;DHT22;275;48.492;9.214;2022-11-20T02:36:45;10.00;35.30
578;DHT22;275;48.492;9.214;2022-11-20T02:39:15;9.90;36.40
578;DHT22;275;48.492;9.214;2022-11-20T02:41:43;9.30;37.80
578;DHT22;275;48.492;9.214;2022-11-20T02:44:10;8.80;38.80
578;DHT22;275;48.492;9.214;2022-11-20T02:46:36;8.90;38.50
578;DHT22;275;48.492;9.214;2022-11-20T02:49:04;8.20;40.20
578;DHT22;275;48.492;9.214;2022-11-20T02:51:31;8.50;39.80
578;DHT22;275;48.492;9.214;2022-11-20T02:53:58;8.50;39.80
578;DHT22;275;48.492;9.214;2022-11-20T02:56:27;9.20;37.90
578;DHT22;275;48.492;9.214;2022-11-20T02:58:54;9.00;38.20
578;DHT22;275;48.492;9.214;2022-11-20T03:01:21;8.80;38.50
578;DHT22;275;48.492;9.214;2022-11-20T03:03:48;8.60;39.20
578;DHT22;275;48.492;9.214;2022-11-20T03:06:15;8.80;38.30
578;DHT22;275;48.492;9.214;2022-11-20T03:08:42;8.40;39.40
578;DHT22;275;48.492;9.214;2022-11-20T03:11:09;8.70;38.80
578;DHT22;275;48.492;9.214;2022-11-20T03:13:37;8.80;38.50
578;DHT22;275;48.492;9.214;2022-11-20T03:16:06;8.40;39.20
578;DHT22;275;48.492;9.214;2022-11-20T03:18:33;8.40;39.20
578;DHT22;275;48.492;9.214;2022-11-20T03:21:00;8.40;39.00
578;DHT22;275;48.492;9.214;2022-11-20T03:23:29;8.50;39.00
578;DHT22;275;48.492;9.214;2022-11-20T03:25:56;8.20;39.70
578;DHT22;275;48.492;9.214;2022-11-20T03:28:23;8.40;39.40
578;DHT22;275;48.492;9.214;2022-11-20T03:30:51;8.50;38.70
578;DHT22;275;48.492;9.214;2022-11-20T03:33:18;8.60;38.40
578;DHT22;275;48.492;9.214;2022-11-20T03:35:44;8.50;38.80
578;DHT22;275;48.492;9.214;2022-11-20T03:38:11;8.60;39.00
578;DHT22;275;48.492;9.214;2022-11-20T03:40:38;7.80;40.30
578;DHT22;275;48.492;9.214;2022-11-20T03:43:05;8.10;40.00
578;DHT22;275;48.492;9.214;2022-11-20T03:45:32;8.00;40.50
578;DHT22;275;48.492;9.214;2022-11-20T03:48:00;8.40;39.10
578;DHT22;275;48.492;9.214;2022-11-20T03:50:27;8.50;38.70
578;DHT22;275;48.492;9.214;2022-11-20T03:52:53;8.00;40.20
578;DHT22;275;48.492;9.214;2022-11-20T03:55:20;8.20;40.00
578;DHT22;275;48.492;9.214;2022-11-20T03:57:47;8.10;39.70
578;DHT22;275;48.492;9.214;2022-11-20T04:00:14;8.40;39.10
578;DHT22;275;48.492;9.214;2022-11-20T04:02:41;8.40;39.00
578;DHT22;275;48.492;9.214;2022-11-20T04:05:09;8.80;38.70
578;DHT22;275;48.492;9.214;2022-11-20T04:07:36;8.50;38.60
578;DHT22;275;48.492;9.214;2022-11-20T04:10:04;8.70;38.70
578;DHT22;275;48.492;9.214;2022-11-20T04:12:32;8.70;38.70
578;DHT22;275;48.492;9.214;2022-11-20T04:14:59;8.80;38.40
578;DHT22;275;48.492;9.214;2022-11-20T04:17:26;9.00;37.90
578;DHT22;275;48.492;9.214;2022-11-20T04:19:53;9.70;35.90
578;DHT22;275;48.492;9.214;2022-11-20T04:22:21;9.90;35.30
578;DHT22;275;48.492;9.214;2022-11-20T04:24:48;9.70;35.70
578;DHT22;275;48.492;9.214;2022-11-20T04:27:15;9.80;35.50
578;DHT22;275;48.492;9.214;2022-11-20T04:29:41;9.60;36.00
578;DHT22;275;48.492;9.214;2022-11-20T04:32:08;9.30;36.40
578;DHT22;275;48.492;9.214;2022-11-20T04:34:35;8.90;37.70
578;DHT22;275;48.492;9.214;2022-11-20T04:37:02;8.60;38.00
578;DHT22;275;48.492;9.214;2022-11-20T04:39:30;8.80;37.90
578;DHT22;275;48.492;9.214;2022-11-20T04:41:57;9.10;37.20
578;DHT22;275;48.492;9.214;2022-11-20T04:44:38;8.70;37.80
578;DHT22;275;48.492;9.214;2022-11-20T04:47:05;8.60;38.00
578;DHT22;275;48.492;9.214;2022-11-20T04:49:32;8.60;38.40
578;DHT22;275;48.492;9.214;2022-11-20T04:51:59;8.60;38.10
578;DHT22;275;48.492;9.214;2022-11-20T04:54:26;8.90;37.20
578;DHT22;275;48.492;9.214;2022-11-20T04:56:54;8.60;37.70
578;DHT22;275;48.492;9.214;2022-11-20T04:59:21;8.70;38.20
578;DHT22;275;48.492;9.214;2022-11-20T05:01:48;8.80;37.30
578;DHT22;275;48.492;9.214;2022-11-20T05:04:14;9.10;36.50
578;DHT22;275;48.492;9.214;2022-11-20T05:06:41;8.60;37.00
578;DHT22;275;48.492;9.214;2022-11-20T05:09:08;8.30;38.10
578;DHT22;275;48.492;9.214;2022-11-20T05:11:35;8.50;37.30
578;DHT22;275;48.492;9.214;2022-11-20T05:14:03;8.50;37.80
578;DHT22;275;48.492;9.214;2022-11-20T05:16:30;8.60;37.20
578;DHT22;275;48.492;9.214;2022-11-20T05:18:57;8.80;36.90
578;DHT22;275;48.492;9.214;2022-11-20T05:21:23;9.00;36.00
578;DHT22;275;48.492;9.214;2022-11-20T05:23:50;8.80;36.50
578;DHT22;275;48.492;9.214;2022-11-20T05:26:18;8.60;37.00
578;DHT22;275;48.492;9.214;2022-11-20T05:28:46;8.70;37.10
578;DHT22;275;48.492;9.214;2022-11-20T05:31:16;8.70;37.00
578;DHT22;275;48.492;9.214;2022-11-20T05:33:44;9.20;36.40
578;DHT22;275;48.492;9.214;2022-11-20T05:36:14;8.50;36.90
578;DHT22;275;48.492;9.214;2022-11-20T05:38:41;8.20;37.90
578;DHT22;275;48.492;9.214;2022-11-20T05:41:10;8.30;37.80
578;DHT22;275;48.492;9.214;2022-11-20T05:43:38;9.00;36.20
578;DHT22;275;48.492;9.214;2022-11-20T05:46:06;8.80;36.30
578;DHT22;275;48.492;9.214;2022-11-20T05:48:36;8.70;36.70
578;DHT22;275;48.492;9.214;2022-11-20T05:51:05;9.10;35.50
578;DHT22;275;48.492;9.214;2022-11-20T05:53:33;8.70;35.90
578;DHT22;275;48.492;9.214;2022-11-20T05:56:01;8.80;36.20
578;DHT22;275;48.492;9.214;2022-11-20T05:58:29;8.70;35.60
578;DHT22;275;48.492;9.214;2022-11-20T06:01:03;8.80;36.00
578;DHT22;275;48.492;9.214;2022-11-20T06:03:30;9.20;35.20
578;DHT22;275;48.492;9.214;2022-11-20T06:06:01;9.00;35.40
578;DHT22;275;48.492;9.214;2022-11-20T06:08:28;8.70;36.10
578;DHT22;275;48.492;9.214;2022-11-20T06:10:55;8.50;36.70
578;DHT22;275;48.492;9.214;2022-11-20T06:13:22;8.40;37.80
578;DHT22;275;48.492;9.214;2022-11-20T06:15:49;8.70;36.70
578;DHT22;275;48.492;9.214;2022-11-20T06:18:17;9.10;35.90
578;DHT22;275;48.492;9.214;2022-11-20T06:20:44;9.10;36.00
578;DHT22;275;48.492;9.214;2022-11-20T06:23:12;8.60;37.00
578;DHT22;275;48.492;9.214;2022-11-20T06:25:40;8.40;37.30
578;DHT22;275;48.492;9.214;2022-11-20T06:28:07;8.20;38.00
578;DHT22;275;48.492;9.214;2022-11-20T06:30:34;8.40;37.90
578;DHT22;275;48.492;9.214;2022-11-20T06:33:01;8.40;37.60
578;DHT22;275;48.492;9.214;2022-11-20T06:35:28;8.40;38.00
578;DHT22;275;48.492;9.214;2022-11-20T06:37:55;8.30;37.80
578;DHT22;275;48.492;9.214;2022-11-20T06:40:24;7.80;38.90
578;DHT22;275;48.492;9.214;2022-11-20T06:42:52;7.70;40.30
578;DHT22;275;48.492;9.214;2022-11-20T06:45:19;7.90;39.50
578;DHT22;275;48.492;9.214;2022-11-20T06:47:46;7.80;39.40
578;DHT22;275;48.492;9.214;2022-11-20T06:50:13;7.50;40.10
578;DHT22;275;48.492;9.214;2022-11-20T06:52:40;7.80;39.40
578;DHT22;275;48.492;9.214;2022-11-20T06:55:07;7.80;39.40
578;DHT22;275;48.492;9.214;2022-11-20T06:57:35;7.80;39.30
578;DHT22;275;48.492;9.214;2022-11-20T07:00:03;8.10;38.90
578;DHT22;275;48.492;9.214;2022-11-20T07:02:30;7.80;39.60
578;DHT22;275;48.492;9.214;2022-11-20T07:04:57;8.10;38.90
578;DHT22;275;48.492;9.214;2022-11-20T07:07:23;8.00;38.60
578;DHT22;275;48.492;9.214;2022-11-20T07:09:50;7.90;39.60
578;DHT22;275;48.492;9.214;2022-11-20T07:12:17;7.70;40.20
578;DHT22;275;48.492;9.214;2022-11-20T07:14:45;8.00;39.70
578;DHT22;275;48.492;9.214;2022-11-20T07:17:12;7.90;40.10
578;DHT22;275;48.492;9.214;2022-11-20T07:19:39;8.40;38.40
578;DHT22;275;48.492;9.214;2022-11-20T07:22:05;8.20;39.70
578;DHT22;275;48.492;9.214;2022-11-20T07:24:32;8.20;39.50
578;DHT22;275;48.492;9.214;2022-11-20T07:26:59;8.70;39.00
578;DHT22;275;48.492;9.214;2022-11-20T07:29:26;8.90;38.00
578;DHT22;275;48.492;9.214;2022-11-20T07:31:54;9.00;37.70
578;DHT22;275;48.492;9.214;2022-11-20T07:34:22;8.90;37.80
578;DHT22;275;48.492;9.214;2022-11-20T07:36:48;8.40;39.00
578;DHT22;275;48.492;9.214;2022-11-20T07:39:15;8.50;39.20
578;DHT22;275;48.492;9.214;2022-11-20T07:41:42;8.40;39.50
578;DHT22;275;48.492;9.214;2022-11-20T07:44:09;8.60;39.00
578;DHT22;275;48.492;9.214;2022-11-20T07:46:36;9.20;37.60
578;DHT22;275;48.492;9.214;2022-11-20T07:49:04;9.30;37.30
578;DHT22;275;48.492;9.214;2022-11-20T07:51:31;9.00;37.80
578;DHT22;275;48.492;9.214;2022-11-20T07:53:57;8.80;38.80
578;DHT22;275;48.492;9.214;2022-11-20T07:56:24;8.80;38.50
578;DHT22;275;48.492;9.214;2022-11-20T07:58:51;8.60;39.50
578;DHT22;275;48.492;9.214;2022-11-20T08:01:18;9.00;38.00
578;DHT22;275;48.492;9.214;2022-11-20T08:03:45;9.00;37.80
578;DHT22;275;48.492;9.214;2022-11-20T08:06:13;8.70;39.70
578;DHT22;275;48.492;9.214;2022-11-20T08:08:40;8.40;39.70
578;DHT22;275;48.492;9.214;2022-11-20T08:11:07;8.70;39.20
578;DHT22;275;48.492;9.214;2022-11-20T08:13:51;9.00;38.30
578;DHT22;275;48.492;9.214;2022-11-20T08:16:35;8.90;37.80
578;DHT22;275;48.492;9.214;2022-11-20T08:19:02;8.50;38.80
578;DHT22;275;48.492;9.214;2022-11-20T08:21:31;8.50;39.50
578;DHT22;275;48.492;9.214;2022-11-20T08:23:59;8.30;39.30
578;DHT22;275;48.492;9.214;2022-11-20T08:26:26;8.40;39.80
578;DHT22;275;48.492;9.214;2022-11-20T08:28:54;9.10;38.40
578;DHT22;275;48.492;9.214;2022-11-20T08:31:21;8.80;38.60
578;DHT22;275;48.492;9.214;2022-11-20T08:33:48;9.00;38.20
578;DHT22;275;48.492;9.214;2022-11-20T08:36:16;8.80;38.30
578;DHT22;275;48.492;9.214;2022-11-20T08:38:47;8.60;39.20
578;DHT22;275;48.492;9.214;2022-11-20T08:41:14;8.40;39.20
578;DHT22;275;48.492;9.214;2022-11-20T08:43:51;8.40;39.40
578;DHT22;275;48.492;9.214;2022-11-20T08:46:19;8.40;39.80
578;DHT22;275;48.492;9.214;2022-11-20T08:48:46;8.50;38.80
578;DHT22;275;48.492;9.214;2022-11-20T08:51:13;8.90;38.50
578;DHT22;275;48.492;9.214;2022-11-20T08:53:40;9.20;37.50
578;DHT22;275;48.492;9.214;2022-11-20T08:56:09;8.90;38.70
578;DHT22;275;48.492;9.214;2022-11-20T08:58:36;9.40;37.70
578;DHT22;275;48.492;9.214;2022-11-20T09:01:03;9.50;37.30
578;DHT22;275;48.492;9.214;2022-11-20T09:03:30;9.50;37.40
578;DHT22;275;48.492;9.214;2022-11-20T09:05:58;9.60;38.60
578;DHT22;275;48.492;9.214;2022-11-20T09:08:25;9.30;38.50
578;DHT22;275;48.492;9.214;2022-11-20T09:10:53;9.70;37.80
578;DHT22;275;48.492;9.214;2022-11-20T09:13:22;9.90;37.10
578;DHT22;275;48.492;9.214;2022-11-20T09:15:53;10.30;35.40
578;DHT22;275;48.492;9.214;2022-11-20T09:18:20;10.70;33.80
578;DHT22;275;48.492;9.214;2022-11-20T09:20:47;10.40;35.40
578;DHT22;275;48.492;9.214;2022-11-20T09:23:14;10.10;36.80
578;DHT22;275;48.492;9.214;2022-11-20T09:25:41;9.80;38.00
578;DHT22;275;48.492;9.214;2022-11-20T09:28:09;8.70;41.00
578;DHT22;275;48.492;9.214;2022-11-20T09:30:37;9.00;40.50
578;DHT22;275;48.492;9.214;2022-11-20T09:33:04;9.50;39.10
578;DHT22;275;48.492;9.214;2022-11-20T09:35:32;9.00;39.70
578;DHT22;275;48.492;9.214;2022-11-20T09:38:04;9.20;40.10
578;DHT22;275;48.492;9.214;2022-11-20T09:40:31;9.40;39.00
578;DHT22;275;48.492;9.214;2022-11-20T09:43:02;8.60;41.00
578;DHT22;275;48.492;9.214;2022-11-20T09:45:42;8.20;42.70
578;DHT22;275;48.492;9.214;2022-11-20T09:48:25;8.20;43.00
578;DHT22;275;48.492;9.214;2022-11-20T09:50:58;8.60;42.10
578;DHT22;275;48.492;9.214;2022-11-20T09:53:33;9.10;40.80
578;DHT22;275;48.492;9.214;2022-11-20T09:56:03;8.80;41.50
578;DHT22;275;48.492;9.214;2022-11-20T09:58:33;9.10;41.50
578;DHT22;275;48.492;9.214;2022-11-20T10:01:08;9.10;40.60
578;DHT22;275;48.492;9.214;2022-11-20T10:03:42;9.20;41.30
578;DHT22;275;48.492;9.214;2022-11-20T10:06:17;9.20;41.30
578;DHT22;275;48.492;9.214;2022-11-20T10:08:48;9.30;41.20
578;DHT22;275;48.492;9.214;2022-11-20T10:11:23;8.70;43.10
578;DHT22;275;48.492;9.214;2022-11-20T10:14:01;8.70;42.70
578;DHT22;275;48.492;9.214;2022-11-20T10:16:42;9.30;41.50
578;DHT22;275;48.492;9.214;2022-11-20T10:19:29;9.10;42.50
578;DHT22;275;48.492;9.214;2022-11-20T10:22:08;8.70;43.10
578;DHT22;275;48.492;9.214;2022-11-20T10:24:44;9.10;42.20
578;DHT22;275;48.492;9.214;2022-11-20T10:30:12;8.40;43.90
578;DHT22;275;48.492;9.214;2022-11-20T10:32:43;8.80;43.20
578;DHT22;275;48.492;9.214;2022-11-20T10:35:18;8.70;43.40
578;DHT22;275;48.492;9.214;2022-11-20T10:37:49;9.00;42.80
578;DHT22;275;48.492;9.214;2022-11-20T10:40:24;9.50;41.40
578;DHT22;275;48.492;9.214;2022-11-20T10:42:56;9.50;41.80
578;DHT22;275;48.492;9.214;2022-11-20T10:45:36;9.60;40.80
578;DHT22;275;48.492;9.214;2022-11-20T10:48:12;9.10;42.20
578;DHT22;275;48.492;9.214;2022-11-20T10:50:52;9.80;42.10
578;DHT22;275;48.492;9.214;2022-11-20T10:53:38;10.20;38.80
578;DHT22;275;48.492;9.214;2022-11-20T10:56:11;10.00;39.30
578;DHT22;275;48.492;9.214;2022-11-20T10:58:45;9.70;41.50
578;DHT22;275;48.492;9.214;2022-11-20T11:01:17;10.00;40.30
578;DHT22;275;48.492;9.214;2022-11-20T11:03:48;10.00;39.70
578;DHT22;275;48.492;9.214;2022-11-20T11:06:22;9.90;41.20
578;DHT22;275;48.492;9.214;2022-11-20T11:08:53;9.30;42.40
578;DHT22;275;48.492;9.214;2022-11-20T11:11:24;9.70;42.20
578;DHT22;275;48.492;9.214;2022-11-20T11:13:52;9.70;41.90
578;DHT22;275;48.492;9.214;2022-11-20T11:16:23;10.00;40.90
578;DHT22;275;48.492;9.214;2022-11-20T11:19:02;10.10;40.60
578;DHT22;275;48.492;9.214;2022-11-20T11:21:29;9.30;43.80
578;DHT22;275;48.492;9.214;2022-11-20T11:23:59;8.30;46.80
578;DHT22;275;48.492;9.214;2022-11-20T11:26:26;8.60;46.70
578;DHT22;275;48.492;9.214;2022-11-20T11:28:55;9.30;44.80
578;DHT22;275;48.492;9.214;2022-11-20T11:31:23;10.00;42.00
578;DHT22;275;48.492;9.214;2022-11-20T11:33:51;10.10;40.50
578;DHT22;275;48.492;9.214;2022-11-20T11:36:22;9.80;41.80
578;DHT22;275;48.492;9.214;2022-11-20T11:38:52;9.90;43.10
578;DHT22;275;48.492;9.214;2022-11-20T11:41:24;9.70;41.50
578;DHT22;275;48.492;9.214;2022-11-20T11:43:53;9.40;43.10
578;DHT22;275;48.492;9.214;2022-11-20T11:46:39;9.40;43.60
578;DHT22;275;48.492;9.214;2022-11-20T11:49:16;10.00;40.70
578;DHT22;275;48.492;9.214;2022-11-20T11:54:41;10.60;37.80
578;DHT22;275;48.492;9.214;2022-11-20T11:57:14;10.60;38.50
578;DHT22;275;48.492;9.214;2022-11-20T11:59:54;10.20;38.80
578;DHT22;275;48.492;9.214;2022-11-20T12:02:36;10.30;39.50
578;DHT22;275;48.492;9.214;2022-11-20T12:05:15;10.20;38.50
578;DHT22;275;48.492;9.214;2022-11-20T12:07:47;9.80;40.30
578;DHT22;275;48.492;9.214;2022-11-20T12:10:21;9.10;41.50
578;DHT22;275;48.492;9.214;2022-11-20T12:12:53;9.30;41.90
578;DHT22;275;48.492;9.214;2022-11-20T12:15:27;9.80;41.20
578;DHT22;275;48.492;9.214;2022-11-20T12:17:55;9.90;40.50
578;DHT22;275;48.492;9.214;2022-11-20T12:20:28;9.80;40.20
578;DHT22;275;48.492;9.214;2022-11-20T12:23:01;9.30;41.10
578;DHT22;275;48.492;9.214;2022-11-20T12:25:34;9.60;39.80
578;DHT22;275;48.492;9.214;2022-11-20T12:28:26;8.90;41.60
578;DHT22;275;48.492;9.214;2022-11-20T12:31:08;9.60;40.10
578;DHT22;275;48.492;9.214;2022-11-20T12:33:54;10.00;38.30
578;DHT22;275;48.492;9.214;2022-11-20T12:36:35;9.50;40.20
578;DHT22;275;48.492;9.214;2022-11-20T12:39:22;9.30;39.70
578;DHT22;275;48.492;9.214;2022-11-20T12:42:05;8.90;41.70
578;DHT22;275;48.492;9.214;2022-11-20T12:45:46;9.60;40.30
578;DHT22;275;48.492;9.214;2022-11-20T12:48:34;9.60;40.50
578;DHT22;275;48.492;9.214;2022-11-20T12:51:23;9.80;41.20
578;DHT22;275;48.492;9.214;2022-11-20T12:54:01;10.00;39.60
578;DHT22;275;48.492;9.214;2022-11-20T12:56:39;10.30;38.00
578;DHT22;275;48.492;9.214;2022-11-20T12:59:19;10.30;38.10
578;DHT22;275;48.492;9.214;2022-11-20T13:01:51;10.40;38.50
578;DHT22;275;48.492;9.214;2022-11-20T13:04:33;10.60;37.10
578;DHT22;275;48.492;9.214;2022-11-20T13:07:09;11.00;36.00
578;DHT22;275;48.492;9.214;2022-11-20T13:09:42;11.10;35.60
578;DHT22;275;48.492;9.214;2022-11-20T13:12:13;10.90;35.50
578;DHT22;275;48.492;9.214;2022-11-20T13:14:45;11.00;35.30
578;DHT22;275;48.492;9.214;2022-11-20T13:17:22;11.20;34.60
578;DHT22;275;48.492;9.214;2022-11-20T13:19:53;10.40;35.40
578;DHT22;275;48.492;9.214;2022-11-20T13:22:27;10.50;36.30
578;DHT22;275;48.492;9.214;2022-11-20T13:24:56;11.60;33.90
578;DHT22;275;48.492;9.214;2022-11-20T13:27:23;11.90;32.50
578;DHT22;275;48.492;9.214;2022-11-20T13:30:02;11.20;33.90
578;DHT22;275;48.492;9.214;2022-11-20T13:32:48;11.60;33.20
578;DHT22;275;48.492;9.214;2022-11-20T13:35:25;11.20;33.20
578;DHT22;275;48.492;9.214;2022-11-20T13:38:00;11.00;34.30
578;DHT22;275;48.492;9.214;2022-11-20T13:40:29;11.60;33.50
578;DHT22;275;48.492;9.214;2022-11-20T13:43:02;11.60;32.70
578;DHT22;275;48.492;9.214;2022-11-20T13:45:32;11.50;33.50
578;DHT22;275;48.492;9.214;2022-11-20T13:48:03;11.40;33.30
578;DHT22;275;48.492;9.214;2022-11-20T13:50:44;12.50;32.10
578;DHT22;275;48.492;9.214;2022-11-20T13:53:32;14.60;28.70
578;DHT22;275;48.492;9.214;2022-11-20T13:56:03;15.80;26.50
578;DHT22;275;48.492;9.214;2022-11-20T13:58:43;15.70;26.10
578;DHT22;275;48.492;9.214;2022-11-20T14:01:16;13.50;27.50
578;DHT22;275;48.492;9.214;2022-11-20T14:03:43;11.60;30.60
578;DHT22;275;48.492;9.214;2022-11-20T14:06:14;10.70;31.90
578;DHT22;275;48.492;9.214;2022-11-20T14:08:46;10.20;32.90
578;DHT22;275;48.492;9.214;2022-11-20T14:11:16;10.00;34.00
578;DHT22;275;48.492;9.214;2022-11-20T14:13:59;10.70;31.90
578;DHT22;275;48.492;9.214;2022-11-20T14:16:29;11.30;30.90
578;DHT22;275;48.492;9.214;2022-11-20T14:18:57;11.30;30.60
578;DHT22;275;48.492;9.214;2022-11-20T14:21:37;10.70;31.70
578;DHT22;275;48.492;9.214;2022-11-20T14:24:05;11.50;31.30
578;DHT22;275;48.492;9.214;2022-11-20T14:26:34;12.80;28.90
578;DHT22;275;48.492;9.214;2022-11-20T14:29:01;13.10;28.10
578;DHT22;275;48.492;9.214;2022-11-20T14:31:28;13.40;27.50
578;DHT22;275;48.492;9.214;2022-11-20T14:33:56;13.20;26.90
578;DHT22;275;48.492;9.214;2022-11-20T14:36:24;12.60;27.90
578;DHT22;275;48.492;9.214;2022-11-20T14:38:52;12.60;27.80
578;DHT22;275;48.492;9.214;2022-11-20T14:41:20;12.00;28.50
578;DHT22;275;48.492;9.214;2022-11-20T14:43:53;11.70;29.30
578;DHT22;275;48.492;9.214;2022-11-20T14:46:21;12.30;28.50
578;DHT22;275;48.492;9.214;2022-11-20T14:48:50;12.80;27.70
578;DHT22;275;48.492;9.214;2022-11-20T14:51:31;13.00;27.30
578;DHT22;275;48.492;9.214;2022-11-20T14:54:09;12.60;28.10
578;DHT22;275;48.492;9.214;2022-11-20T14:56:36;12.10;28.60
578;DHT22;275;48.492;9.214;2022-11-20T14:59:05;11.50;29.70
578;DHT22;275;48.492;9.214;2022-11-20T15:01:33;11.10;30.40
578;DHT22;275;48.492;9.214;2022-11-20T15:04:02;10.80;31.10
578;DHT22;275;48.492;9.214;2022-11-20T15:06:31;10.80;31.20
578;DHT22;275;48.492;9.214;2022-11-20T15:08:58;10.30;32.30
578;DHT22;275;48.492;9.214;2022-11-20T15:11:29;10.40;33.30
578;DHT22;275;48.492;9.214;2022-11-20T15:13:58;10.40;33.10
578;DHT22;275;48.492;9.214;2022-11-20T15:16:30;10.60;32.40
578;DHT22;275;48.492;9.214;2022-11-20T15:18:57;10.80;32.30
578;DHT22;275;48.492;9.214;2022-11-20T15:21:24;11.10;31.70
578;DHT22;275;48.492;9.214;2022-11-20T15:23:51;11.40;31.10
578;DHT22;275;48.492;9.214;2022-11-20T15:26:23;10.80;31.50
578;DHT22;275;48.492;9.214;2022-11-20T15:28:51;11.00;31.30
578;DHT22;275;48.492;9.214;2022-11-20T15:31:19;10.30;31.90
578;DHT22;275;48.492;9.214;2022-11-20T15:33:49;10.00;33.20
578;DHT22;275;48.492;9.214;2022-11-20T15:36:16;10.20;32.90
578;DHT22;275;48.492;9.214;2022-11-20T15:38:42;10.40;32.10
578;DHT22;275;48.492;9.214;2022-11-20T15:41:09;10.50;32.30
578;DHT22;275;48.492;9.214;2022-11-20T15:43:37;10.90;31.70
578;DHT22;275;48.492;9.214;2022-11-20T15:46:06;11.00;31.60
578;DHT22;275;48.492;9.214;2022-11-20T15:48:38;10.90;31.20
578;DHT22;275;48.492;9.214;2022-11-20T15:51:14;10.60;32.10
578;DHT22;275;48.492;9.214;2022-11-20T15:53:43;10.60;32.10
578;DHT22;275;48.492;9.214;2022-11-20T15:56:11;10.70;31.90
578;DHT22;275;48.492;9.214;2022-11-20T15:58:39;10.70;31.30
578;DHT22;275;48.492;9.214;2022-11-20T16:01:10;10.50;31.80
578;DHT22;275;48.492;9.214;2022-11-20T16:03:36;10.10;32.50
578;DHT22;275;48.492;9.214;2022-11-20T16:06:04;9.70;33.90
578;DHT22;275;48.492;9.214;2022-11-20T16:08:32;9.30;34.70
578;DHT22;275;48.492;9.214;2022-11-20T16:10:59;9.60;34.20
578;DHT22;275;48.492;9.214;2022-11-20T16:13:26;9.40;34.10
578;DHT22;275;48.492;9.214;2022-11-20T16:16:19;9.20;34.00
578;DHT22;275;48.492;9.214;2022-11-20T16:18:46;8.80;35.40
578;DHT22;275;48.492;9.214;2022-11-20T16:21:13;9.20;34.80
578;DHT22;275;48.492;9.214;2022-11-20T16:23:42;9.10;34.00
578;DHT22;275;48.492;9.214;2022-11-20T16:26:09;9.20;33.60
578;DHT22;275;48.492;9.214;2022-11-20T16:28:36;9.30;33.60
578;DHT22;275;48.492;9.214;2022-11-20T16:31:09;9.30;33.50
578;DHT22;275;48.492;9.214;2022-11-20T16:33:36;9.30;33.40
578;DHT22;275;48.492;9.214;2022-11-20T16:36:07;9.30;33.20
578;DHT22;275;48.492;9.214;2022-11-20T16:38:34;9.60;32.30
578;DHT22;275;48.492;9.214;2022-11-20T16:41:03;9.20;32.60
578;DHT22;275;48.492;9.214;2022-11-20T16:43:29;9.20;33.00
578;DHT22;275;48.492;9.214;2022-11-20T16:45:56;9.20;32.50
578;DHT22;275;48.492;9.214;2022-11-20T16:48:23;9.20;32.20
578;DHT22;275;48.492;9.214;2022-11-20T16:50:51;9.00;32.80
578;DHT22;275;48.492;9.214;2022-11-20T16:53:19;8.70;33.00
578;DHT22;275;48.492;9.214;2022-11-20T16:55:47;8.80;32.70
578;DHT22;275;48.492;9.214;2022-11-20T16:58:15;8.90;32.50
578;DHT22;275;48.492;9.214;2022-11-20T17:00:42;9.40;31.40
578;DHT22;275;48.492;9.214;2022-11-20T17:03:10;9.50;31.00
578;DHT22;275;48.492;9.214;2022-11-20T17:05:38;9.60;30.90
578;DHT22;275;48.492;9.214;2022-11-20T17:08:05;9.40;31.50
578;DHT22;275;48.492;9.214;2022-11-20T17:10:31;9.70;30.90
578;DHT22;275;48.492;9.214;2022-11-20T17:12:58;10.10;29.50